createdAt,value
2019-06-08T04:43:07.716Z,99.90
2019-06-08T04:45:38.705Z,99.90
2019-06-08T04:48:11.025Z,99.90
2019-06-08T04:50:40.879Z,99.90
2019-06-08T04:53:10.610Z,99.90
2019-06-08T04:55:40.947Z,99.90
2019-06-08T04:58:10.709Z,99.90
2019-06-08T05:00:41.392Z,99.90
2019-06-08T05:03:11.545Z,99.90
2019-06-08T05:05:41.140Z,99.90
2019-06-08T05:08:10.612Z,99.90
2019-06-08T05:10:41.269Z,99.90
2019-06-08T05:13:12.728Z,99.90
2019-06-08T05:15:43.026Z,99.90
2019-06-08T05:18:12.877Z,99.90
2019-06-08T05:20:45.482Z,99.90
2019-06-08T05:23:14.391Z,99.90
2019-06-08T05:25:43.674Z,99.90
2019-06-08T05:28:12.951Z,99.90
2019-06-08T05:30:43.227Z,99.90
2019-06-08T05:33:12.859Z,99.90
2019-06-08T05:35:43.361Z,99.90
2019-06-08T05:38:12.848Z,99.90
2019-06-08T05:40:42.134Z,99.90
2019-06-08T05:43:11.352Z,99.90
2019-06-08T05:45:43.566Z,99.90
2019-06-08T05:48:13.235Z,99.90
2019-06-08T05:50:58.783Z,99.90
2019-06-08T05:53:13.880Z,99.90
2019-06-08T05:55:43.877Z,99.90
2019-06-08T05:58:13.270Z,99.90
2019-06-08T06:00:46.273Z,99.90
2019-06-08T06:03:15.692Z,99.90
2019-06-08T06:05:45.009Z,99.90
2019-06-08T06:08:18.836Z,99.90
2019-06-08T06:10:46.792Z,99.90
2019-06-08T06:13:16.372Z,99.90
2019-06-08T06:15:47.197Z,99.90
2019-06-08T06:18:16.579Z,99.90
2019-06-08T06:20:47.299Z,99.90
2019-06-08T06:23:16.713Z,99.90
2019-06-08T06:25:45.989Z,99.90
2019-06-08T06:28:15.523Z,99.90
2019-06-08T06:30:46.659Z,99.90
2019-06-08T06:33:16.155Z,99.90
2019-06-08T06:35:48.367Z,99.90
2019-06-08T06:38:17.817Z,99.90
2019-06-08T06:40:48.077Z,99.90
2019-06-08T06:43:17.612Z,99.90
2019-06-08T06:45:48.050Z,99.90
2019-06-08T06:48:23.419Z,99.90
2019-06-08T06:50:52.571Z,99.90
2019-06-08T06:53:22.331Z,99.90
2019-06-08T06:55:51.619Z,99.90
2019-06-08T06:58:20.935Z,99.90
2019-06-08T07:00:51.309Z,99.90
2019-06-08T07:03:24.827Z,99.90
2019-06-08T07:05:57.337Z,99.90
2019-06-08T07:08:26.665Z,99.90
2019-06-08T07:10:55.967Z,99.90
2019-06-08T07:13:25.619Z,99.90
2019-06-08T07:15:58.099Z,99.90
2019-06-08T07:18:26.300Z,99.90
2019-06-08T07:20:55.631Z,99.90
2019-06-08T07:23:24.861Z,99.90
2019-06-08T07:25:54.532Z,99.90
2019-06-08T07:28:26.330Z,99.90
2019-06-08T07:30:55.825Z,99.90
2019-06-08T07:33:25.199Z,99.90
2019-06-08T07:35:55.321Z,99.90
2019-06-08T07:38:24.851Z,99.90
2019-06-08T07:40:57.900Z,99.90
2019-06-08T07:43:24.994Z,99.90
2019-06-08T07:45:54.588Z,99.90
2019-06-08T07:48:23.876Z,99.90
2019-06-08T07:50:54.243Z,99.90
2019-06-08T07:53:24.029Z,99.90
2019-06-08T07:55:57.017Z,99.90
2019-06-08T07:58:26.328Z,99.90
2019-06-08T08:01:00.719Z,99.90
2019-06-08T08:03:26.619Z,99.90
2019-06-08T08:05:56.700Z,99.90
2019-06-08T08:08:26.333Z,99.90
2019-06-08T08:10:56.730Z,99.90
2019-06-08T08:13:26.434Z,99.90
2019-06-08T08:15:58.605Z,99.90
2019-06-08T08:18:26.959Z,99.90
2019-06-08T08:21:04.324Z,99.90
2019-06-08T08:23:30.130Z,99.90
2019-06-08T08:26:01.687Z,99.90
2019-06-08T08:28:31.447Z,99.90
2019-06-08T08:31:02.933Z,99.90
2019-06-08T08:33:32.235Z,99.90
2019-06-08T08:36:02.061Z,99.90
2019-06-08T08:38:31.416Z,99.90
2019-06-08T08:41:10.047Z,99.90
2019-06-08T08:43:37.723Z,99.90
2019-06-08T08:46:07.686Z,99.90
2019-06-08T08:48:37.788Z,99.90
2019-06-08T08:51:08.560Z,99.90
2019-06-08T08:53:38.012Z,99.90
2019-06-08T08:56:07.475Z,99.90
2019-06-08T08:58:39.367Z,99.90
2019-06-08T09:01:08.875Z,99.90
2019-06-08T09:03:39.601Z,99.90
2019-06-08T09:06:09.137Z,99.90
2019-06-08T09:08:38.459Z,99.90
2019-06-08T09:11:08.300Z,99.90
2019-06-08T09:13:37.918Z,99.90
2019-06-08T09:16:08.178Z,99.90
2019-06-08T09:18:37.755Z,99.90
2019-06-08T09:21:10.163Z,99.90
2019-06-08T09:23:39.882Z,99.90
2019-06-08T09:26:12.837Z,99.90
2019-06-08T09:28:40.576Z,99.90
2019-06-08T09:31:14.147Z,99.90
2019-06-08T09:33:53.250Z,99.90
2019-06-08T09:36:17.541Z,99.50
2019-06-08T09:38:48.725Z,99.40
2019-06-08T09:41:21.767Z,99.40
2019-06-08T09:43:53.859Z,99.90
2019-06-08T09:46:23.071Z,99.90
2019-06-08T09:48:54.022Z,99.80
2019-06-08T09:51:23.405Z,98.20
2019-06-08T09:53:54.201Z,95.50
2019-06-08T09:56:24.077Z,95.50
2019-06-08T09:58:55.908Z,97.30
2019-06-08T10:01:24.561Z,98.00
2019-06-08T10:03:54.346Z,92.20
2019-06-08T10:06:26.995Z,88.10
2019-06-08T10:08:56.413Z,88.30
2019-06-08T10:11:27.920Z,83.80
2019-06-08T10:13:59.864Z,80.70
2019-06-08T10:16:30.568Z,82.80
2019-06-08T10:19:03.179Z,85.00
2019-06-08T10:21:30.110Z,76.60
2019-06-08T10:24:04.685Z,74.10
2019-06-08T10:26:37.526Z,70.90
2019-06-08T10:29:10.413Z,70.70
2019-06-08T10:31:44.098Z,75.10
2019-06-08T10:34:13.422Z,73.80
2019-06-08T10:36:42.924Z,76.30
2019-06-08T10:39:12.274Z,77.30
2019-06-08T10:41:41.821Z,70.30
2019-06-08T10:44:13.904Z,77.50
2019-06-08T10:46:42.069Z,67.90
2019-06-08T10:49:14.371Z,75.10
2019-06-08T10:51:43.190Z,75.30
2019-06-08T10:54:12.641Z,77.50
2019-06-08T10:56:42.207Z,73.20
2019-06-08T10:59:12.920Z,71.30
2019-06-08T11:01:42.615Z,71.50
2019-06-08T11:04:15.572Z,73.10
2019-06-08T11:06:44.874Z,72.30
2019-06-08T11:09:19.259Z,72.20
2019-06-08T11:11:48.981Z,69.60
2019-06-08T11:14:20.512Z,69.20
2019-06-08T11:16:49.339Z,69.60
2019-06-08T11:19:18.759Z,61.00
2019-06-08T11:21:48.423Z,69.70
2019-06-08T11:24:24.141Z,64.20
2019-06-08T11:26:48.772Z,64.60
2019-06-08T11:29:18.797Z,64.80
2019-06-08T11:31:50.982Z,66.50
2019-06-08T11:34:21.791Z,57.10
2019-06-08T11:36:51.741Z,56.40
2019-06-08T11:39:22.947Z,60.60
2019-06-08T11:41:52.285Z,56.90
2019-06-08T11:44:21.502Z,56.30
2019-06-08T11:46:50.806Z,59.20
2019-06-08T11:49:22.180Z,55.10
2019-06-08T11:51:51.483Z,53.70
2019-06-08T11:54:33.012Z,59.00
2019-06-08T11:56:54.466Z,60.00
2019-06-08T11:59:25.608Z,58.60
2019-06-08T12:01:54.947Z,62.50
2019-06-08T12:04:24.452Z,57.00
2019-06-08T12:06:53.813Z,56.20
2019-06-08T12:09:23.128Z,56.10
